createdAt,value
2022-12-06T04:48:34.017Z,7.50
2022-12-06T04:49:37.658Z,7.68
2022-12-06T04:50:53.280Z,7.75
2022-12-06T04:51:58.624Z,7.15
2022-12-06T04:53:02.045Z,6.97
2022-12-06T04:54:07.790Z,7.75
2022-12-06T04:55:12.738Z,8.30
2022-12-06T04:56:15.284Z,7.78
2022-12-06T04:57:17.905Z,8.25
2022-12-06T04:58:21.261Z,7.53
2022-12-06T04:59:24.231Z,7.28
2022-12-06T05:00:30.337Z,7.97
2022-12-06T05:01:42.482Z,8.07
2022-12-06T05:02:46.129Z,7.47
2022-12-06T05:03:50.028Z,8.75
2022-12-06T05:04:52.262Z,7.70
2022-12-06T05:05:55.195Z,8.23
2022-12-06T05:06:57.379Z,7.50
2022-12-06T05:08:02.216Z,7.05
2022-12-06T05:09:05.631Z,7.60
2022-12-06T05:10:08.831Z,8.38
2022-12-06T05:11:13.297Z,9.10
2022-12-06T05:12:16.908Z,7.90
2022-12-06T05:13:20.976Z,8.65
2022-12-06T05:14:24.794Z,7.53
2022-12-06T05:15:29.406Z,7.32
2022-12-06T05:16:33.554Z,7.82
2022-12-06T05:17:35.793Z,8.05
2022-12-06T05:18:39.130Z,8.27
2022-12-06T05:19:43.459Z,8.10
2022-12-06T05:20:46.081Z,8.02
2022-12-06T05:21:56.156Z,8.20
2022-12-06T05:22:58.803Z,8.25
2022-12-06T05:24:00.876Z,8.10
2022-12-06T05:25:03.457Z,8.25
2022-12-06T05:26:13.844Z,8.07
2022-12-06T05:27:16.167Z,7.53
2022-12-06T05:28:18.348Z,7.35
2022-12-06T05:29:21.364Z,8.38
2022-12-06T05:30:23.529Z,12.30
2022-12-06T05:31:27.074Z,8.40
2022-12-06T05:32:33.936Z,8.15
2022-12-06T05:33:38.647Z,7.25
2022-12-06T05:34:41.749Z,8.48
2022-12-06T05:35:45.480Z,8.25
2022-12-06T05:36:50.494Z,7.85
2022-12-06T05:37:54.104Z,7.85
2022-12-06T05:38:56.558Z,7.55
2022-12-06T05:39:59.987Z,7.70
2022-12-06T05:41:04.551Z,8.80
2022-12-06T05:42:06.959Z,7.97
2022-12-06T05:43:12.306Z,8.02
2022-12-06T05:44:18.517Z,7.68
2022-12-06T05:45:24.350Z,8.20
2022-12-06T05:46:27.846Z,8.02
2022-12-06T05:47:30.847Z,8.45
2022-12-06T05:48:34.026Z,8.27
2022-12-06T05:49:37.959Z,7.80
2022-12-06T05:50:41.325Z,8.00
2022-12-06T05:51:44.834Z,7.93
2022-12-06T05:52:50.702Z,8.35
2022-12-06T05:53:54.511Z,7.63
2022-12-06T05:54:57.143Z,9.25
2022-12-06T05:56:24.521Z,9.32
2022-12-06T05:57:27.159Z,8.15
2022-12-06T05:58:29.313Z,8.25
2022-12-06T05:59:31.288Z,8.23
2022-12-06T06:00:33.382Z,8.43
2022-12-06T06:01:48.419Z,9.30
2022-12-06T06:02:51.880Z,8.07
2022-12-06T06:04:21.161Z,10.93
2022-12-06T06:05:23.875Z,7.68
2022-12-06T06:06:26.527Z,8.60
2022-12-06T06:07:29.694Z,8.68
2022-12-06T06:09:00.040Z,8.55
2022-12-06T06:10:03.038Z,9.20
2022-12-06T06:11:08.358Z,7.80
2022-12-06T06:12:12.920Z,8.77
2022-12-06T06:13:16.541Z,8.55
2022-12-06T06:14:21.289Z,8.25
2022-12-06T06:15:32.124Z,8.32
2022-12-06T06:16:34.966Z,8.45
2022-12-06T06:17:43.466Z,8.48
2022-12-06T06:18:48.677Z,8.80
2022-12-06T06:19:56.987Z,8.80
2022-12-06T06:21:01.712Z,7.90
2022-12-06T06:22:12.921Z,7.97
2022-12-06T06:23:30.616Z,8.93
2022-12-06T06:24:45.403Z,8.75
2022-12-06T06:25:49.080Z,8.70
2022-12-06T06:26:53.038Z,8.63
2022-12-06T06:27:55.295Z,9.50
2022-12-06T06:28:57.580Z,9.20
2022-12-06T06:30:02.768Z,11.00
2022-12-06T06:31:06.250Z,8.77
2022-12-06T06:32:08.437Z,8.95
2022-12-06T06:33:13.592Z,9.48
2022-12-06T06:34:16.296Z,9.27
2022-12-06T06:35:21.153Z,9.32
2022-12-06T06:36:23.209Z,8.88
2022-12-06T06:37:26.169Z,9.80
2022-12-06T06:38:30.643Z,9.00
2022-12-06T06:39:37.581Z,10.23
2022-12-06T06:40:40.198Z,9.30
2022-12-06T06:41:42.861Z,8.80
2022-12-06T06:42:48.899Z,9.85
2022-12-06T06:43:52.000Z,10.13
2022-12-06T06:44:56.509Z,9.68
2022-12-06T06:46:02.496Z,10.10
2022-12-06T06:47:08.034Z,9.63
2022-12-06T06:48:12.288Z,8.93
2022-12-06T06:49:22.098Z,9.88
2022-12-06T06:50:26.668Z,8.55
2022-12-06T06:51:35.410Z,10.30
2022-12-06T06:52:39.025Z,9.40
2022-12-06T06:53:43.753Z,9.27
2022-12-06T06:55:06.531Z,10.40
2022-12-06T06:56:09.096Z,10.80
2022-12-06T06:57:17.669Z,10.20
2022-12-06T06:58:21.829Z,10.10
2022-12-06T06:59:25.843Z,10.27
2022-12-06T07:00:33.208Z,9.40
2022-12-06T07:01:38.604Z,9.82
2022-12-06T07:02:42.644Z,9.98
2022-12-06T07:03:46.395Z,10.40
2022-12-06T07:04:51.048Z,10.50
2022-12-06T07:05:57.539Z,9.30
2022-12-06T07:07:01.516Z,10.30
2022-12-06T07:08:05.823Z,9.73
2022-12-06T07:09:09.780Z,9.95
2022-12-06T07:10:13.576Z,13.20
2022-12-06T07:11:17.514Z,11.10
2022-12-06T07:12:22.686Z,10.85
2022-12-06T07:13:31.876Z,9.85
2022-12-06T07:14:35.122Z,10.07
2022-12-06T07:15:38.357Z,10.52
2022-12-06T07:16:41.111Z,10.30
2022-12-06T07:17:46.119Z,9.35
2022-12-06T07:18:50.881Z,10.25
2022-12-06T07:19:57.403Z,10.27
2022-12-06T07:21:03.914Z,10.73
2022-12-06T07:22:15.856Z,9.70
2022-12-06T07:23:18.486Z,10.15
2022-12-06T07:24:22.591Z,13.18
2022-12-06T07:25:28.964Z,9.98
2022-12-06T07:26:32.517Z,9.63
2022-12-06T07:27:39.795Z,10.40
2022-12-06T07:28:46.044Z,9.23
2022-12-06T07:29:48.919Z,9.90
2022-12-06T07:30:56.930Z,9.98
2022-12-06T07:32:00.083Z,9.77
2022-12-06T07:33:03.750Z,10.13
2022-12-06T07:34:10.649Z,9.90
2022-12-06T07:35:15.285Z,9.88
2022-12-06T07:36:20.796Z,10.13
2022-12-06T07:37:26.569Z,9.57
2022-12-06T07:38:31.993Z,10.40
2022-12-06T07:39:38.902Z,9.57
2022-12-06T07:42:29.298Z,9.52
2022-12-06T07:43:52.702Z,9.68
2022-12-06T07:45:03.674Z,9.27
2022-12-06T07:46:13.440Z,9.25
2022-12-06T07:47:18.102Z,9.35
2022-12-06T07:48:22.065Z,9.38
2022-12-06T07:49:30.515Z,9.35
2022-12-06T07:50:37.191Z,9.32
2022-12-06T07:51:46.076Z,9.48
2022-12-06T07:52:56.492Z,9.35
2022-12-06T07:54:05.090Z,10.38
2022-12-06T07:55:09.738Z,9.60
2022-12-06T07:56:13.203Z,8.85
2022-12-06T07:57:19.551Z,9.57
2022-12-06T07:58:44.998Z,9.00
2022-12-06T07:59:52.511Z,9.50
2022-12-06T08:02:02.427Z,9.10
2022-12-06T08:03:12.733Z,9.63
2022-12-06T08:04:16.660Z,9.30
2022-12-06T08:05:25.713Z,10.50
2022-12-06T08:06:31.388Z,10.30
2022-12-06T08:07:35.405Z,8.93
2022-12-06T08:08:40.095Z,10.18
2022-12-06T08:09:45.779Z,9.73
2022-12-06T08:10:51.186Z,10.05
2022-12-06T08:12:00.830Z,8.98
2022-12-06T08:13:05.220Z,9.52
2022-12-06T08:14:18.682Z,9.82
2022-12-06T08:15:26.030Z,12.52
2022-12-06T08:16:29.650Z,11.20
2022-12-06T08:17:34.260Z,19.85
2022-12-06T08:18:37.772Z,10.15
2022-12-06T08:19:47.145Z,10.18
2022-12-06T08:20:54.943Z,10.52
2022-12-06T08:22:01.952Z,9.52
2022-12-06T08:23:09.053Z,9.57
2022-12-06T08:24:16.834Z,10.60
2022-12-06T08:25:32.310Z,10.15
2022-12-06T08:26:37.486Z,10.13
2022-12-06T08:27:52.613Z,10.27
2022-12-06T08:28:58.006Z,9.25
2022-12-06T08:30:09.097Z,10.02
2022-12-06T08:31:24.379Z,9.40
2022-12-06T08:32:32.058Z,9.90
2022-12-06T08:33:38.051Z,10.23
2022-12-06T08:34:49.154Z,10.05
2022-12-06T08:35:56.532Z,9.80
2022-12-06T08:37:06.514Z,9.98
2022-12-06T08:38:14.311Z,10.38
2022-12-06T08:39:21.246Z,10.15
2022-12-06T08:40:26.437Z,8.95
2022-12-06T08:41:48.892Z,10.50
2022-12-06T08:42:57.244Z,9.07
2022-12-06T08:45:38.897Z,8.80
2022-12-06T08:46:51.925Z,10.48
2022-12-06T08:47:57.800Z,10.13
2022-12-06T08:49:06.161Z,10.38
2022-12-06T08:50:11.540Z,10.13
2022-12-06T08:51:24.596Z,9.98
2022-12-06T08:52:38.194Z,9.45
2022-12-06T08:53:56.179Z,10.23
2022-12-06T08:55:01.983Z,9.93
2022-12-06T08:56:10.705Z,11.43
2022-12-06T08:57:27.636Z,10.50
2022-12-06T08:58:38.469Z,10.38
2022-12-06T08:59:45.229Z,9.13
2022-12-06T09:00:53.943Z,9.45
2022-12-06T09:02:03.618Z,10.07
2022-12-06T09:03:08.770Z,9.55
2022-12-06T09:04:26.115Z,10.95
2022-12-06T09:05:37.712Z,9.88
2022-12-06T09:06:43.442Z,9.70
2022-12-06T09:07:52.357Z,10.73
2022-12-06T09:09:01.420Z,9.70
2022-12-06T09:10:19.673Z,9.02
2022-12-06T09:11:27.121Z,9.27
2022-12-06T09:12:36.063Z,10.35
2022-12-06T09:13:50.881Z,8.70
2022-12-06T09:14:56.046Z,8.93
2022-12-06T09:16:15.074Z,9.05
2022-12-06T09:17:22.745Z,8.35
2022-12-06T09:18:26.824Z,9.07
2022-12-06T09:19:30.841Z,9.57
2022-12-06T09:20:47.142Z,10.38
2022-12-06T09:21:56.342Z,9.57
2022-12-06T09:23:09.149Z,10.18
2022-12-06T09:24:17.930Z,10.93
2022-12-06T09:25:25.355Z,10.10
2022-12-06T09:26:32.254Z,10.00
2022-12-06T09:27:49.279Z,10.00
2022-12-06T09:28:56.111Z,10.27
2022-12-06T09:30:05.396Z,14.77
2022-12-06T09:31:12.782Z,10.82
2022-12-06T09:32:23.274Z,10.55
2022-12-06T09:33:30.043Z,11.43
2022-12-06T09:34:34.631Z,11.00
2022-12-06T09:35:39.502Z,10.80
2022-12-06T09:37:05.969Z,10.68
2022-12-06T09:38:12.467Z,10.93
2022-12-06T09:39:46.468Z,10.63
2022-12-06T09:41:14.178Z,11.45
2022-12-06T09:42:55.988Z,10.38
2022-12-06T09:44:18.088Z,11.18
2022-12-06T09:45:40.431Z,10.85
2022-12-06T09:47:18.013Z,10.20
2022-12-06T09:48:50.532Z,10.73
2022-12-06T09:50:33.270Z,10.00
2022-12-06T09:52:08.674Z,10.40
2022-12-06T09:53:28.009Z,9.55
2022-12-06T09:54:52.594Z,10.27
2022-12-06T09:56:17.556Z,10.18
2022-12-06T09:58:11.389Z,10.00
2022-12-06T09:59:32.697Z,9.80
2022-12-06T10:00:47.114Z,10.88
2022-12-06T10:02:23.044Z,11.02
2022-12-06T10:03:41.660Z,10.93
2022-12-06T10:05:05.096Z,9.80
2022-12-06T10:06:20.731Z,9.80
2022-12-06T10:07:46.176Z,10.43
2022-12-06T10:09:19.962Z,10.43
2022-12-06T10:10:31.314Z,9.93
2022-12-06T10:11:57.823Z,10.75
2022-12-06T10:13:35.925Z,10.95
2022-12-06T10:15:18.406Z,10.88
2022-12-06T10:16:34.401Z,10.00
2022-12-06T10:18:09.266Z,9.15
2022-12-06T10:19:27.748Z,10.05
2022-12-06T10:21:01.820Z,9.88
2022-12-06T10:22:12.951Z,9.73
2022-12-06T10:24:01.430Z,9.63
2022-12-06T10:25:13.867Z,9.40
2022-12-06T10:26:29.847Z,9.38
2022-12-06T10:27:47.917Z,8.93
2022-12-06T10:29:09.336Z,9.88
2022-12-06T10:30:16.232Z,9.75
2022-12-06T10:31:26.215Z,10.65
2022-12-06T10:32:47.016Z,9.52
2022-12-06T10:34:01.237Z,10.30
2022-12-06T10:35:40.672Z,9.35
2022-12-06T10:36:47.587Z,8.50
2022-12-06T10:37:49.555Z,9.80
2022-12-06T10:39:09.576Z,9.15
2022-12-06T10:40:44.711Z,10.18
2022-12-06T10:42:15.023Z,8.38
2022-12-06T10:43:20.935Z,8.57
2022-12-06T10:44:46.236Z,9.02
2022-12-06T10:46:27.314Z,8.95
2022-12-06T10:47:59.625Z,9.02
2022-12-06T10:49:24.933Z,8.30
2022-12-06T10:50:33.270Z,8.43
2022-12-06T10:51:44.789Z,7.75
2022-12-06T10:53:02.462Z,8.43
2022-12-06T10:54:24.231Z,8.05
2022-12-06T10:55:50.254Z,7.78
2022-12-06T10:57:32.748Z,13.45
2022-12-06T10:59:45.335Z,8.00
2022-12-06T11:00:57.275Z,7.00
2022-12-06T11:02:15.057Z,8.18
2022-12-06T11:03:24.275Z,8.68
2022-12-06T11:04:32.512Z,8.32
2022-12-06T11:05:59.381Z,8.55
2022-12-06T11:07:20.237Z,8.43
2022-12-06T11:08:38.939Z,7.53
2022-12-06T11:09:44.661Z,8.32
2022-12-06T11:10:49.650Z,8.43
2022-12-06T11:11:53.467Z,8.38
2022-12-06T11:13:14.120Z,8.57
2022-12-06T11:14:30.621Z,7.97
2022-12-06T11:15:42.708Z,8.52
2022-12-06T11:17:07.538Z,7.90
2022-12-06T11:18:19.664Z,8.10
2022-12-06T11:19:44.843Z,8.25
2022-12-06T11:20:53.609Z,8.57
2022-12-06T11:22:34.362Z,7.97
2022-12-06T11:23:52.282Z,7.55
2022-12-06T11:25:02.759Z,7.47
2022-12-06T11:26:32.435Z,8.48
2022-12-06T11:27:42.846Z,7.75
2022-12-06T11:28:55.591Z,8.25
2022-12-06T11:29:59.475Z,7.57
2022-12-06T11:31:06.954Z,6.95
2022-12-06T11:32:09.641Z,7.35
2022-12-06T11:33:11.698Z,8.10
2022-12-06T11:34:25.151Z,7.03
2022-12-06T11:35:28.747Z,7.85
2022-12-06T11:36:34.155Z,7.60
2022-12-06T11:37:44.155Z,7.97
2022-12-06T11:38:47.521Z,7.25
2022-12-06T11:39:59.874Z,7.30
2022-12-06T11:41:12.296Z,10.50
2022-12-06T11:42:23.360Z,7.80
2022-12-06T11:43:32.923Z,7.70
2022-12-06T11:45:10.967Z,7.03
2022-12-06T11:46:15.951Z,6.82
2022-12-06T11:47:25.543Z,7.18
2022-12-06T11:48:35.238Z,7.47
2022-12-06T11:49:42.110Z,7.38
2022-12-06T11:50:48.783Z,7.70
2022-12-06T11:51:53.411Z,6.95
2022-12-06T11:53:02.933Z,6.90
2022-12-06T11:54:17.484Z,6.57
2022-12-06T11:55:27.074Z,7.28
2022-12-06T11:56:38.419Z,7.32
2022-12-06T11:57:55.136Z,7.10
2022-12-06T11:59:35.462Z,7.07
2022-12-06T12:01:02.184Z,6.70
2022-12-06T12:02:05.636Z,7.38
2022-12-06T12:03:29.127Z,6.65
2022-12-06T12:04:40.383Z,7.13
2022-12-06T12:05:43.278Z,7.32
2022-12-06T12:06:48.994Z,6.85
2022-12-06T12:07:56.650Z,6.85
2022-12-06T12:09:06.311Z,7.38
2022-12-06T12:10:38.790Z,8.20
2022-12-06T12:11:42.500Z,7.28
2022-12-06T12:13:08.717Z,7.43
2022-12-06T12:14:24.610Z,6.88
2022-12-06T12:15:27.894Z,7.90
2022-12-06T12:16:38.290Z,6.90
2022-12-06T12:17:52.280Z,7.20
2022-12-06T12:18:55.460Z,7.93
2022-12-06T12:20:05.521Z,8.18
2022-12-06T12:21:08.585Z,8.30
2022-12-06T12:22:22.223Z,7.97
2022-12-06T12:23:48.374Z,7.45
2022-12-06T12:26:22.196Z,8.20
2022-12-06T12:27:35.632Z,7.20
2022-12-06T12:28:42.744Z,7.85
2022-12-06T12:29:45.371Z,8.02
2022-12-06T12:30:59.320Z,8.32
2022-12-06T12:32:11.660Z,7.85
2022-12-06T12:33:20.000Z,8.05
2022-12-06T12:34:30.020Z,7.85
2022-12-06T12:35:55.134Z,7.05
2022-12-06T12:37:04.700Z,7.35
2022-12-06T12:38:12.557Z,8.23
2022-12-06T12:39:25.497Z,9.57
2022-12-06T12:40:40.434Z,8.55
2022-12-06T12:41:46.309Z,8.07
2022-12-06T12:43:00.652Z,8.07
2022-12-06T12:46:10.432Z,7.15
2022-12-06T12:47:22.736Z,7.90
2022-12-06T12:48:26.528Z,7.30
2022-12-06T12:49:39.476Z,7.50
2022-12-06T12:50:56.558Z,8.57
2022-12-06T12:52:00.783Z,6.85
2022-12-06T12:53:04.460Z,7.65
2022-12-06T12:54:34.266Z,7.40
2022-12-06T12:55:41.709Z,11.07
2022-12-06T12:56:46.598Z,6.85
2022-12-06T12:57:53.634Z,7.05
2022-12-06T12:58:58.184Z,7.43
2022-12-06T13:00:01.377Z,8.50
2022-12-06T13:01:15.118Z,6.78
2022-12-06T13:02:38.539Z,7.15
2022-12-06T13:03:56.662Z,6.90
2022-12-06T13:05:34.566Z,7.15
2022-12-06T13:07:50.256Z,6.30
2022-12-06T13:08:56.396Z,6.47
2022-12-06T13:10:04.387Z,6.90
2022-12-06T13:11:10.549Z,6.18
2022-12-06T13:12:43.045Z,6.43
2022-12-06T13:13:54.281Z,7.05
2022-12-06T13:15:06.554Z,7.07
2022-12-06T13:16:25.074Z,7.25
2022-12-06T13:17:29.796Z,6.70
2022-12-06T13:19:14.526Z,6.75
2022-12-06T13:20:31.606Z,6.95
2022-12-06T13:21:43.094Z,7.15
2022-12-06T13:22:49.241Z,7.20
2022-12-06T13:24:02.606Z,7.03
2022-12-06T13:25:09.417Z,7.10
2022-12-06T13:26:30.593Z,7.18
2022-12-06T13:27:39.107Z,7.25
2022-12-06T13:28:50.588Z,6.15
2022-12-06T13:30:01.952Z,7.47
2022-12-06T13:31:11.918Z,7.10
2022-12-06T13:32:20.533Z,6.72
2022-12-06T13:33:26.418Z,6.75
2022-12-06T13:34:37.826Z,7.53
2022-12-06T13:35:45.813Z,6.80
2022-12-06T13:36:50.566Z,7.18
2022-12-06T13:37:59.756Z,8.02
2022-12-06T13:39:35.759Z,6.97
2022-12-06T13:41:05.883Z,7.68
2022-12-06T13:42:42.917Z,6.82
2022-12-06T13:44:33.536Z,7.53
2022-12-06T13:45:43.501Z,6.53
2022-12-06T13:46:47.275Z,8.05
2022-12-06T13:47:51.418Z,7.82
2022-12-06T13:48:58.244Z,7.55
2022-12-06T13:50:09.144Z,7.45
2022-12-06T13:51:39.248Z,7.40
2022-12-06T13:52:48.385Z,6.53
2022-12-06T13:54:12.423Z,7.43
2022-12-06T13:55:25.535Z,7.47
2022-12-06T13:56:29.363Z,6.30
2022-12-06T13:57:32.321Z,6.88
2022-12-06T13:58:40.998Z,7.38
2022-12-06T13:59:43.442Z,7.10
2022-12-06T14:00:53.731Z,7.03
2022-12-06T14:01:58.881Z,7.03
2022-12-06T14:03:19.415Z,8.52
2022-12-06T14:08:02.856Z,6.40
2022-12-06T14:09:14.183Z,6.25
2022-12-06T14:10:16.770Z,6.88
2022-12-06T14:11:39.747Z,7.15
2022-12-06T14:12:45.486Z,7.43
2022-12-06T14:14:02.030Z,6.60
2022-12-06T14:15:19.239Z,6.88
2022-12-06T14:16:47.637Z,7.30
2022-12-06T14:18:03.005Z,6.72
2022-12-06T14:19:29.387Z,6.50
2022-12-06T14:20:32.243Z,7.68
2022-12-06T14:21:37.817Z,6.50
2022-12-06T14:22:47.221Z,6.85
2022-12-06T14:23:53.553Z,7.38
2022-12-06T14:25:19.236Z,7.40
2022-12-06T14:26:30.039Z,6.35
2022-12-06T14:27:36.376Z,7.40
2022-12-06T14:28:39.149Z,6.57
2022-12-06T14:29:43.957Z,7.57
2022-12-06T14:30:47.273Z,7.10
2022-12-06T14:31:52.355Z,7.25
2022-12-06T14:32:59.704Z,6.90
2022-12-06T14:34:02.052Z,7.18
2022-12-06T14:35:16.211Z,7.00
2022-12-06T14:36:40.191Z,7.15
2022-12-06T14:37:57.293Z,6.88
2022-12-06T14:39:12.273Z,10.05
2022-12-06T14:40:56.440Z,16.08
2022-12-06T14:42:23.981Z,11.55
2022-12-06T14:43:29.606Z,7.45
2022-12-06T14:44:32.666Z,8.02
2022-12-06T14:45:45.748Z,7.20
2022-12-06T14:46:49.602Z,7.72
2022-12-06T14:47:52.026Z,7.40
2022-12-06T14:49:12.657Z,6.57
2022-12-06T14:50:33.998Z,7.57
2022-12-06T14:51:41.229Z,7.63
2022-12-06T14:53:06.601Z,8.75
2022-12-06T14:54:28.108Z,16.92
2022-12-06T14:55:53.283Z,25.67
2022-12-06T14:56:56.638Z,9.57
2022-12-06T14:58:14.660Z,8.70
2022-12-06T14:59:46.155Z,19.05
2022-12-06T15:01:17.329Z,6.63
2022-12-06T15:02:24.952Z,7.22
2022-12-06T15:03:35.236Z,7.10
2022-12-06T15:04:39.823Z,7.25
2022-12-06T15:05:49.822Z,6.43
2022-12-06T15:06:56.247Z,6.38
2022-12-06T15:07:58.388Z,6.20
2022-12-06T15:09:01.687Z,7.00
2022-12-06T15:10:32.574Z,7.05
2022-12-06T15:12:05.619Z,6.50
2022-12-06T15:13:17.151Z,7.28
2022-12-06T15:14:40.161Z,6.82
2022-12-06T15:15:46.260Z,6.78
2022-12-06T15:17:00.319Z,7.00
2022-12-06T15:18:16.525Z,6.88
2022-12-06T15:19:18.490Z,6.68
2022-12-06T15:20:20.579Z,8.10
2022-12-06T15:21:22.886Z,6.72
2022-12-06T15:22:28.086Z,7.03
2022-12-06T15:23:56.309Z,6.82
2022-12-06T15:25:01.001Z,7.55
2022-12-06T15:26:08.103Z,6.80
2022-12-06T15:27:13.275Z,7.38
2022-12-06T15:28:19.883Z,6.93
2022-12-06T15:29:23.126Z,7.20
2022-12-06T15:30:25.217Z,7.28
2022-12-06T15:31:28.699Z,7.22
2022-12-06T15:32:31.763Z,7.32
2022-12-06T15:33:33.938Z,6.93
2022-12-06T15:34:36.224Z,7.43
2022-12-06T15:35:38.845Z,6.93
2022-12-06T15:36:41.332Z,7.43
2022-12-06T15:37:49.952Z,7.10
2022-12-06T15:38:55.669Z,7.15
2022-12-06T15:40:05.140Z,7.20
2022-12-06T15:41:19.151Z,6.85
2022-12-06T15:42:26.852Z,7.50
2022-12-06T15:43:35.037Z,6.80
2022-12-06T15:44:43.047Z,7.00
2022-12-06T15:45:49.718Z,7.25
2022-12-06T15:46:53.305Z,6.43
2022-12-06T15:47:56.834Z,6.93
2022-12-06T15:49:00.870Z,7.25
2022-12-06T15:50:04.913Z,6.68
2022-12-06T15:51:21.078Z,6.13
2022-12-06T15:52:25.002Z,6.57
2022-12-06T15:53:36.598Z,6.28
2022-12-06T15:54:39.417Z,6.25
2022-12-06T15:55:41.833Z,6.00
2022-12-06T15:56:46.197Z,6.45
2022-12-06T15:57:51.592Z,7.10
2022-12-06T15:58:54.929Z,5.82
2022-12-06T16:00:03.282Z,6.47
2022-12-06T16:01:24.430Z,5.80
2022-12-06T16:02:30.508Z,6.32
2022-12-06T16:03:38.993Z,6.15
2022-12-06T16:04:42.949Z,5.88
2022-12-06T16:05:49.233Z,5.80
2022-12-06T16:06:51.861Z,6.03
2022-12-06T16:07:54.107Z,5.18
2022-12-06T16:08:57.140Z,5.82
2022-12-06T16:10:00.777Z,6.32
2022-12-06T16:11:11.480Z,6.18
2022-12-06T16:12:17.952Z,5.65
2022-12-06T16:13:23.703Z,6.05
2022-12-06T16:14:35.273Z,5.82
2022-12-06T16:16:06.443Z,5.32
2022-12-06T16:17:22.183Z,7.43
2022-12-06T16:19:17.703Z,6.03
2022-12-06T16:20:32.614Z,11.27
2022-12-06T16:21:37.821Z,7.28
2022-12-06T16:22:58.379Z,5.05
2022-12-06T16:24:17.487Z,5.20
2022-12-06T16:25:24.467Z,5.80
2022-12-06T16:26:45.736Z,5.45
2022-12-06T16:27:53.893Z,5.70
2022-12-06T16:29:08.240Z,5.80
2022-12-06T16:30:50.046Z,5.60
2022-12-06T16:32:34.092Z,5.40
2022-12-06T16:33:42.792Z,5.68
2022-12-06T16:34:45.584Z,6.25
2022-12-06T16:36:20.290Z,6.50
2022-12-06T16:37:24.060Z,5.55
2022-12-06T16:38:29.935Z,6.07
2022-12-06T16:39:38.355Z,6.10
2022-12-06T16:40:43.202Z,6.15
2022-12-06T16:41:48.820Z,5.55
2022-12-06T16:42:54.460Z,5.85
2022-12-06T16:44:01.273Z,5.70
2022-12-06T16:45:17.794Z,5.63
2022-12-06T16:46:28.893Z,5.10
2022-12-06T16:47:32.349Z,5.30
2022-12-06T16:48:44.057Z,5.65
2022-12-06T16:49:49.325Z,4.63
2022-12-06T16:50:51.890Z,5.85
2022-12-06T16:51:55.257Z,5.22
2022-12-06T16:52:58.028Z,5.40
2022-12-06T16:54:04.739Z,16.15
2022-12-06T16:55:10.496Z,6.93
2022-12-06T16:57:02.282Z,5.78
2022-12-06T16:58:06.675Z,7.70
2022-12-06T16:59:21.357Z,5.55
2022-12-06T17:00:27.988Z,4.82
2022-12-06T17:01:55.684Z,4.90
2022-12-06T17:03:01.023Z,5.00
2022-12-06T17:04:14.240Z,4.97
2022-12-06T17:05:26.031Z,5.20
2022-12-06T17:06:30.606Z,4.22
2022-12-06T17:07:34.252Z,5.13
2022-12-06T17:08:39.857Z,5.38
2022-12-06T17:09:42.368Z,5.38
2022-12-06T17:10:48.067Z,5.57
2022-12-06T17:12:04.740Z,4.60
2022-12-06T17:13:07.531Z,4.88
2022-12-06T17:14:14.370Z,5.35
2022-12-06T17:15:19.918Z,4.50
2022-12-06T17:16:22.339Z,5.10
2022-12-06T17:17:26.301Z,5.10
2022-12-06T17:18:34.376Z,4.97
2022-12-06T17:19:36.669Z,4.75
2022-12-06T17:20:40.173Z,4.80
2022-12-06T17:21:43.609Z,5.25
2022-12-06T17:22:47.674Z,4.70
2022-12-06T17:23:52.000Z,5.45
2022-12-06T17:24:56.915Z,5.63
2022-12-06T17:26:03.598Z,5.05
2022-12-06T17:27:09.041Z,4.82
2022-12-06T17:28:14.239Z,4.40
2022-12-06T17:29:18.140Z,4.45
2022-12-06T17:30:26.582Z,5.47
2022-12-06T17:31:29.887Z,5.65
2022-12-06T17:32:32.488Z,4.70
2022-12-06T17:34:10.363Z,4.43
2022-12-06T17:35:30.702Z,5.20
2022-12-06T17:37:26.143Z,4.63
2022-12-06T17:38:50.906Z,5.60
2022-12-06T17:40:05.082Z,5.18
2022-12-06T17:41:49.937Z,4.93
2022-12-06T17:43:01.900Z,4.82
2022-12-06T17:46:01.163Z,4.95
2022-12-06T17:47:08.655Z,4.78
2022-12-06T17:49:39.808Z,5.28
2022-12-06T17:51:13.921Z,5.40
2022-12-06T17:52:26.766Z,4.60
2022-12-06T17:53:32.325Z,5.35
2022-12-06T17:55:31.309Z,4.85
2022-12-06T17:56:43.492Z,4.68
2022-12-06T17:57:53.868Z,5.43
2022-12-06T21:31:01.185Z,5.75
2022-12-06T21:32:17.910Z,5.38
2022-12-06T21:33:29.436Z,6.53
2022-12-06T21:34:35.660Z,6.55
2022-12-06T21:36:30.316Z,5.63
2022-12-06T21:37:45.724Z,6.35
2022-12-06T21:38:59.526Z,6.53
2022-12-06T21:41:01.759Z,7.13
